createdAt,value
2024-01-05T00:00:29.138Z,-2.77
2024-01-05T00:10:52.872Z,-2.72
2024-01-05T00:20:56.668Z,-2.44
2024-01-05T00:31:00.814Z,-2.20
2024-01-05T00:41:06.114Z,-1.82
2024-01-05T00:51:09.895Z,-1.64
2024-01-05T01:01:13.848Z,-1.55
2024-01-05T01:11:20.402Z,-1.68
2024-01-05T01:21:24.153Z,-1.77
2024-01-05T01:31:30.525Z,-1.68
2024-01-05T01:41:34.860Z,-1.61
2024-01-05T01:51:39.349Z,-1.27
2024-01-05T02:01:47.176Z,-1.29
2024-01-05T02:11:51.042Z,-1.47
2024-01-05T02:21:57.944Z,-1.28
2024-01-05T02:32:01.646Z,-1.18
2024-01-05T02:42:06.549Z,-1.17
2024-01-05T02:52:12.465Z,-1.04
2024-01-05T03:02:16.745Z,-0.96
2024-01-05T03:12:22.178Z,-0.92
2024-01-05T03:22:28.665Z,-0.93
2024-01-05T03:32:34.735Z,-1.08
2024-01-05T03:42:39.566Z,-0.98
2024-01-05T03:52:43.346Z,-1.09
2024-01-05T04:02:48.198Z,-1.24
2024-01-05T04:12:52.202Z,-1.16
2024-01-05T04:22:56.068Z,-1.11
2024-01-05T04:33:00.980Z,-1.02
2024-01-05T04:43:05.853Z,-0.96
2024-01-05T04:53:09.580Z,-0.99
2024-01-05T05:03:17.419Z,-1.08
2024-01-05T05:13:21.416Z,-1.05
2024-01-05T05:23:26.172Z,-1.00
2024-01-05T05:33:30.691Z,-1.00
2024-01-05T05:43:34.743Z,-1.24
2024-01-05T05:53:39.083Z,-1.24
2024-01-05T06:03:46.718Z,-1.22
2024-01-05T06:13:50.733Z,-1.09
2024-01-05T06:23:55.407Z,-1.14
2024-01-05T06:34:02.963Z,-1.12
2024-01-05T06:44:09.515Z,-0.94
2024-01-05T06:54:14.947Z,-0.80
2024-01-05T07:04:18.897Z,-0.87
2024-01-05T07:14:24.884Z,-0.86
2024-01-05T07:24:28.795Z,-0.65
2024-01-05T07:34:33.518Z,-0.62
2024-01-05T07:44:37.605Z,-0.54
2024-01-05T07:54:42.248Z,-0.39
2024-01-05T08:04:47.085Z,-0.25
2024-01-05T08:14:51.704Z,-0.08
2024-01-05T08:24:55.982Z,-0.04
2024-01-05T08:34:59.877Z,-0.09
2024-01-05T08:45:06.262Z,0.25
2024-01-05T08:55:10.428Z,0.27
2024-01-05T09:05:14.750Z,0.37
2024-01-05T09:15:19.540Z,1.21
2024-01-05T09:25:23.812Z,1.02
2024-01-05T09:35:27.638Z,0.85
2024-01-05T09:45:33.818Z,0.55
2024-01-05T09:55:37.671Z,0.75
2024-01-05T10:05:41.614Z,0.68
2024-01-05T10:16:04.315Z,0.56
2024-01-05T10:26:17.319Z,0.67
2024-01-05T10:36:25.908Z,0.77
2024-01-05T10:46:33.511Z,0.57
2024-01-05T10:56:43.202Z,1.11
2024-01-05T11:06:47.521Z,1.06
2024-01-05T11:16:57.002Z,0.61
2024-01-05T11:27:00.917Z,0.30
2024-01-05T11:37:09.530Z,0.31
2024-01-05T11:47:49.733Z,0.37
2024-01-05T11:57:53.696Z,0.40
2024-01-05T12:07:57.949Z,0.39
2024-01-05T12:18:16.572Z,0.27
2024-01-05T12:28:24.148Z,0.23
2024-01-05T12:38:30.168Z,0.21
2024-01-05T12:48:35.515Z,0.20
2024-01-05T12:58:44.098Z,0.61
2024-01-05T13:08:48.862Z,0.56
2024-01-05T13:18:52.774Z,0.39
2024-01-05T13:28:56.917Z,0.29
2024-01-05T13:39:02.345Z,0.25
2024-01-05T13:49:06.353Z,0.19
2024-01-05T13:59:10.825Z,0.16
2024-01-05T14:09:14.673Z,0.08
2024-01-05T14:19:19.153Z,0.07
2024-01-05T14:29:26.013Z,0.06
2024-01-05T14:39:31.163Z,-0.15
2024-01-05T14:49:35.711Z,-0.27
2024-01-05T14:59:39.821Z,-0.24
2024-01-05T15:09:45.643Z,-0.11
2024-01-05T15:19:51.907Z,-0.28
2024-01-05T15:29:56.241Z,-0.50
2024-01-05T15:40:00.454Z,-0.48
2024-01-05T15:50:06.064Z,-0.45
2024-01-05T16:00:10.664Z,-0.44
2024-01-05T16:10:18.497Z,-0.45
2024-01-05T16:20:22.635Z,-0.36
2024-01-05T16:30:28.983Z,-0.22
2024-01-05T16:40:32.880Z,-0.08
2024-01-05T16:50:36.744Z,-0.14
2024-01-05T17:00:40.889Z,-0.33
2024-01-05T17:10:47.896Z,-0.22
2024-01-05T17:20:55.274Z,-0.28
2024-01-05T17:30:59.890Z,-0.22
2024-01-05T17:41:04.147Z,-0.08
2024-01-05T17:51:09.269Z,0.02
2024-01-05T18:01:14.224Z,0.23
2024-01-05T18:11:25.872Z,0.27
2024-01-05T18:21:29.691Z,0.25
2024-01-05T18:31:37.186Z,0.24
2024-01-05T18:41:41.894Z,0.11
2024-01-05T18:51:45.831Z,-0.00
2024-01-05T19:01:49.829Z,-0.12
2024-01-05T19:11:53.782Z,-0.36
2024-01-05T19:21:59.887Z,-0.50
2024-01-05T19:32:04.830Z,-0.63
2024-01-05T19:42:08.844Z,-0.67
2024-01-05T19:52:13.902Z,-0.71
2024-01-05T20:02:18.411Z,-0.86
2024-01-05T20:12:22.244Z,-0.96
2024-01-05T20:22:26.484Z,-1.14
2024-01-05T20:32:30.679Z,-1.22
2024-01-05T20:42:34.625Z,-1.25
2024-01-05T20:52:39.305Z,-1.15
2024-01-05T21:02:43.681Z,-0.99
2024-01-05T21:12:47.895Z,-0.82
2024-01-05T21:22:54.479Z,-0.58
2024-01-05T21:32:59.000Z,-0.42
2024-01-05T21:43:03.522Z,-0.39
2024-01-05T21:53:08.582Z,-0.43
2024-01-05T22:03:13.784Z,-0.76
2024-01-05T22:13:18.163Z,-0.81
2024-01-05T22:23:22.500Z,-0.55
2024-01-05T22:33:28.546Z,-0.48
2024-01-05T22:43:32.450Z,-0.21
2024-01-05T22:53:37.159Z,-0.09
2024-01-05T23:03:42.882Z,-0.06
2024-01-05T23:13:46.707Z,-0.00
2024-01-05T23:23:51.965Z,0.17
2024-01-05T23:34:08.632Z,0.06
2024-01-05T23:44:19.978Z,0.00
2024-01-05T23:54:24.388Z,0.17
